createdAt,value
2023-01-25T00:01:35.343Z,15.50
2023-01-25T00:04:21.958Z,15.40
2023-01-25T00:07:07.891Z,15.90
2023-01-25T00:09:53.966Z,16.13
2023-01-25T00:12:39.871Z,15.43
2023-01-25T00:15:25.967Z,15.85
2023-01-25T00:18:12.234Z,16.67
2023-01-25T00:20:58.422Z,15.98
2023-01-25T00:23:44.642Z,16.13
2023-01-25T00:26:31.926Z,16.95
2023-01-25T00:29:18.418Z,16.95
2023-01-25T00:32:08.447Z,16.48
2023-01-25T00:34:54.894Z,16.65
2023-01-25T00:37:43.787Z,17.17
2023-01-25T00:40:30.020Z,17.10
2023-01-25T00:43:18.656Z,15.48
2023-01-25T00:46:04.905Z,17.10
2023-01-25T00:48:54.818Z,17.55
2023-01-25T00:51:41.186Z,18.30
2023-01-25T00:54:28.094Z,17.83
2023-01-25T00:57:14.301Z,16.70
2023-01-25T01:00:00.597Z,18.35
2023-01-25T01:02:46.602Z,17.08
2023-01-25T01:05:36.326Z,17.63
2023-01-25T01:08:22.395Z,17.40
2023-01-25T01:11:09.744Z,17.63
2023-01-25T01:13:57.785Z,18.13
2023-01-25T01:16:44.373Z,16.73
2023-01-25T01:19:30.948Z,16.83
2023-01-25T01:22:17.135Z,17.48
2023-01-25T01:25:03.542Z,15.40
2023-01-25T01:27:49.489Z,15.63
2023-01-25T01:30:36.782Z,15.98
2023-01-25T01:33:23.274Z,15.23
2023-01-25T01:36:10.276Z,17.25
2023-01-25T01:38:56.677Z,17.67
2023-01-25T01:41:43.268Z,15.80
2023-01-25T01:44:50.886Z,16.63
2023-01-25T01:47:47.148Z,16.55
2023-01-25T01:50:35.915Z,17.30
2023-01-25T01:53:25.280Z,16.13
2023-01-25T01:56:13.920Z,16.70
2023-01-25T01:59:01.075Z,17.15
2023-01-25T02:01:47.737Z,15.75
2023-01-25T02:04:34.299Z,16.70
2023-01-25T02:07:28.512Z,16.40
2023-01-25T02:10:16.067Z,16.60
2023-01-25T02:13:04.834Z,15.98
2023-01-25T02:15:52.612Z,15.32
2023-01-25T02:18:39.092Z,16.02
2023-01-25T02:21:25.808Z,15.40
2023-01-25T02:24:21.710Z,15.45
2023-01-25T02:27:07.967Z,15.25
2023-01-25T02:29:54.229Z,15.68
2023-01-25T02:32:42.302Z,14.95
2023-01-25T02:35:37.588Z,16.02
2023-01-25T02:38:23.630Z,14.65
2023-01-25T02:41:16.712Z,14.63
2023-01-25T02:44:04.654Z,14.70
2023-01-25T02:46:50.835Z,13.95
2023-01-25T02:49:37.541Z,15.05
2023-01-25T02:52:23.926Z,15.50
2023-01-25T02:55:10.444Z,15.60
2023-01-25T02:57:59.721Z,14.60
2023-01-25T03:00:46.313Z,13.88
2023-01-25T03:03:33.314Z,13.88
2023-01-25T03:06:20.573Z,13.93
2023-01-25T03:09:09.404Z,13.93
2023-01-25T03:11:59.216Z,13.57
2023-01-25T03:14:45.375Z,14.20
2023-01-25T03:17:31.612Z,14.32
2023-01-25T03:20:17.677Z,14.07
2023-01-25T03:23:03.865Z,13.40
2023-01-25T03:25:51.098Z,13.90
2023-01-25T03:28:38.780Z,13.18
2023-01-25T03:31:25.355Z,13.38
2023-01-25T03:34:11.450Z,13.20
2023-01-25T03:37:01.145Z,12.85
2023-01-25T03:39:50.729Z,13.07
2023-01-25T03:42:38.867Z,12.65
2023-01-25T03:45:25.510Z,13.38
2023-01-25T03:48:11.977Z,13.60
2023-01-25T03:50:59.548Z,13.13
2023-01-25T03:53:47.413Z,12.30
2023-01-25T03:56:36.204Z,13.30
2023-01-25T03:59:37.544Z,12.60
2023-01-25T04:02:24.205Z,12.40
2023-01-25T04:05:10.827Z,13.23
2023-01-25T04:07:57.299Z,13.38
2023-01-25T04:10:53.157Z,12.88
2023-01-25T04:13:39.624Z,12.98
2023-01-25T04:16:31.689Z,12.68
2023-01-25T04:19:40.640Z,12.43
2023-01-25T04:22:30.738Z,13.38
2023-01-25T04:25:16.834Z,13.32
2023-01-25T04:28:08.559Z,13.65
2023-01-25T04:30:55.421Z,12.98
2023-01-25T04:33:47.753Z,13.13
2023-01-25T04:36:37.010Z,10.65
2023-01-25T04:39:23.661Z,14.00
2023-01-25T04:42:12.102Z,13.80
2023-01-25T04:44:58.660Z,13.88
2023-01-25T04:47:45.994Z,13.52
2023-01-25T04:50:32.228Z,13.07
2023-01-25T04:53:19.636Z,13.05
2023-01-25T04:56:06.675Z,13.38
2023-01-25T04:59:01.067Z,14.23
2023-01-25T05:01:47.654Z,13.70
2023-01-25T05:04:33.821Z,12.95
2023-01-25T05:07:19.947Z,13.77
2023-01-25T05:10:07.080Z,13.88
2023-01-25T05:12:55.335Z,14.23
2023-01-25T05:15:41.390Z,14.45
2023-01-25T05:18:31.098Z,13.40
2023-01-25T05:21:45.130Z,13.85
2023-01-25T05:24:33.973Z,13.93
2023-01-25T05:27:24.218Z,14.15
2023-01-25T05:30:13.452Z,14.43
2023-01-25T05:33:18.369Z,14.15
2023-01-25T05:36:05.215Z,15.25
2023-01-25T05:38:54.453Z,14.80
2023-01-25T05:41:40.585Z,14.80
2023-01-25T05:44:27.297Z,15.13
2023-01-25T05:47:15.338Z,16.20
2023-01-25T05:50:02.170Z,15.68
2023-01-25T05:53:00.962Z,17.58
2023-01-25T05:55:48.595Z,17.33
2023-01-25T05:58:36.584Z,17.75
2023-01-25T06:01:22.877Z,18.80
2023-01-25T06:04:16.729Z,17.55
2023-01-25T06:07:04.853Z,17.45
2023-01-25T06:09:52.131Z,17.67
2023-01-25T06:12:39.808Z,16.90
2023-01-25T06:15:27.080Z,17.27
2023-01-25T06:18:17.926Z,16.70
2023-01-25T06:21:23.101Z,17.55
2023-01-25T06:24:09.333Z,17.30
2023-01-25T06:28:53.585Z,16.35
2023-01-25T06:30:32.364Z,17.48
2023-01-25T06:33:18.654Z,18.42
2023-01-25T06:36:06.868Z,17.95
2023-01-25T06:38:53.991Z,18.83
2023-01-25T06:41:40.242Z,17.60
2023-01-25T06:59:44.974Z,19.55
2023-01-25T07:06:23.798Z,20.05
2023-01-25T07:17:10.922Z,18.42
2023-01-25T07:28:16.441Z,17.52
2023-01-25T07:31:07.241Z,17.45
2023-01-25T07:33:54.938Z,17.70
2023-01-25T07:36:41.950Z,16.85
2023-01-25T07:39:28.466Z,17.35
2023-01-25T07:42:15.349Z,17.55
2023-01-25T07:45:10.753Z,17.52
2023-01-25T07:47:58.656Z,17.30
2023-01-25T07:50:46.802Z,17.45
2023-01-25T07:53:32.843Z,18.13
2023-01-25T07:56:19.703Z,16.55
2023-01-25T07:59:08.455Z,17.40
2023-01-25T08:01:54.967Z,16.80
2023-01-25T08:04:42.652Z,16.13
2023-01-25T08:07:29.508Z,16.75
2023-01-25T08:10:16.206Z,16.92
2023-01-25T08:13:02.549Z,17.15
2023-01-25T08:15:54.894Z,16.63
2023-01-25T08:18:40.992Z,16.40
2023-01-25T08:21:31.634Z,17.63
2023-01-25T08:24:20.106Z,18.10
2023-01-25T08:27:06.790Z,17.60
2023-01-25T08:29:53.940Z,17.38
2023-01-25T08:32:40.304Z,17.30
2023-01-25T08:35:26.721Z,18.08
2023-01-25T08:38:16.970Z,17.75
2023-01-25T08:41:14.463Z,17.05
2023-01-25T08:44:01.003Z,17.25
2023-01-25T08:46:47.526Z,17.02
2023-01-25T08:49:34.633Z,17.80
2023-01-25T08:52:22.931Z,17.80
2023-01-25T08:55:09.453Z,17.63
2023-01-25T08:57:56.694Z,18.95
2023-01-25T09:00:45.173Z,17.95
2023-01-25T09:03:31.894Z,17.85
2023-01-25T09:06:18.515Z,18.20
2023-01-25T09:09:05.177Z,18.08
2023-01-25T09:11:51.729Z,18.38
2023-01-25T09:14:40.396Z,18.00
2023-01-25T09:30:10.912Z,16.92
2023-01-25T09:36:33.511Z,16.67
2023-01-25T09:40:09.829Z,17.25
2023-01-25T09:43:02.077Z,16.85
2023-01-25T09:45:48.658Z,17.52
2023-01-25T09:48:44.063Z,17.02
2023-01-25T09:51:50.681Z,16.70
2023-01-25T09:54:47.843Z,17.38
2023-01-25T09:57:37.568Z,16.83
2023-01-25T10:00:27.490Z,17.90
2023-01-25T10:03:20.473Z,17.02
2023-01-25T10:06:06.810Z,17.77
2023-01-25T10:09:28.723Z,17.85
2023-01-25T10:12:17.669Z,16.65
2023-01-25T10:15:08.105Z,17.65
2023-01-25T10:18:01.329Z,17.25
2023-01-25T10:20:55.645Z,17.05
2023-01-25T10:24:14.432Z,18.25
2023-01-25T10:27:11.396Z,17.30
2023-01-25T10:29:59.286Z,17.45
2023-01-25T10:32:55.449Z,17.88
2023-01-25T10:35:47.229Z,17.85
2023-01-25T10:38:45.473Z,17.50
2023-01-25T10:41:41.869Z,17.10
2023-01-25T10:44:29.150Z,16.85
2023-01-25T10:47:18.554Z,16.92
2023-01-25T10:50:05.776Z,15.60
2023-01-25T10:52:59.364Z,17.33
2023-01-25T10:58:31.952Z,15.35
2023-01-25T11:01:27.957Z,15.45
2023-01-25T11:04:35.758Z,15.88
2023-01-25T11:07:30.989Z,13.80
2023-01-25T11:10:38.037Z,14.13
2023-01-25T11:13:33.503Z,13.35
2023-01-25T11:16:20.014Z,12.77
2023-01-25T11:19:24.905Z,13.20
2023-01-25T11:22:20.452Z,13.52
2023-01-25T11:25:25.393Z,12.13
2023-01-25T11:28:18.097Z,13.60
2023-01-25T11:31:04.714Z,13.50
2023-01-25T11:33:51.276Z,13.63
2023-01-25T11:36:43.021Z,13.15
2023-01-25T11:39:35.429Z,12.18
2023-01-25T11:42:40.549Z,12.02
2023-01-25T11:45:36.303Z,11.82
2023-01-25T11:48:43.714Z,12.10
2023-01-25T11:51:50.691Z,11.93
2023-01-25T11:54:51.837Z,10.75
2023-01-25T11:57:49.609Z,11.60
2023-01-25T12:00:36.299Z,10.73
2023-01-25T12:03:41.575Z,10.88
2023-01-25T12:06:43.430Z,10.85
2023-01-25T12:09:43.873Z,11.07
2023-01-25T12:12:36.173Z,10.80
2023-01-25T12:15:29.254Z,9.90
2023-01-25T12:18:28.217Z,9.73
2023-01-25T12:21:33.280Z,9.32
2023-01-25T12:24:23.059Z,9.40
2023-01-25T12:27:19.211Z,9.02
2023-01-25T12:30:14.700Z,9.02
2023-01-25T12:33:14.236Z,8.07
2023-01-25T12:36:20.686Z,8.60
2023-01-25T12:39:13.341Z,8.75
2023-01-25T12:42:09.059Z,8.82
2023-01-25T12:45:01.375Z,8.82
2023-01-25T12:47:51.848Z,8.75
2023-01-25T12:50:41.287Z,9.73
2023-01-25T12:53:30.401Z,9.13
2023-01-25T12:56:35.272Z,8.95
2023-01-25T12:59:28.319Z,9.35
2023-01-25T13:02:38.600Z,9.13
2023-01-25T13:05:34.179Z,10.15
2023-01-25T13:08:38.497Z,9.77
2023-01-25T13:11:28.221Z,9.57
2023-01-25T13:14:20.766Z,9.95
2023-01-25T13:17:26.080Z,10.52
2023-01-25T13:20:31.247Z,10.45
2023-01-25T13:23:36.152Z,10.00
2023-01-25T13:26:22.595Z,9.10
2023-01-25T13:29:30.280Z,9.90
2023-01-25T13:32:26.025Z,9.77
2023-01-25T13:35:31.320Z,10.32
2023-01-25T13:38:25.359Z,9.90
2023-01-25T13:41:17.210Z,9.90
2023-01-25T13:44:14.518Z,10.85
2023-01-25T13:47:03.231Z,10.93
2023-01-25T13:49:58.729Z,11.65
2023-01-25T13:52:57.318Z,11.57
2023-01-25T13:55:47.846Z,11.88
2023-01-25T14:03:03.478Z,12.25
2023-01-25T14:06:10.307Z,11.77
2023-01-25T14:09:38.445Z,12.45
2023-01-25T14:29:43.783Z,12.50
2023-01-25T14:36:25.300Z,13.38
2023-01-25T15:02:56.631Z,14.18
2023-01-25T15:06:01.989Z,14.40
2023-01-25T15:17:09.146Z,14.98
2023-01-25T15:24:35.344Z,14.48
2023-01-25T15:31:32.889Z,16.13
2023-01-25T15:34:25.296Z,15.00
2023-01-25T15:37:11.647Z,15.48
2023-01-25T15:39:58.596Z,14.82
2023-01-25T15:42:45.594Z,15.35
2023-01-25T15:45:36.781Z,14.40
2023-01-25T15:48:31.894Z,17.20
2023-01-25T15:51:19.092Z,15.13
2023-01-25T15:54:07.667Z,14.68
2023-01-25T15:56:58.909Z,15.88
2023-01-25T15:59:46.139Z,16.13
2023-01-25T16:02:32.340Z,14.40
2023-01-25T16:05:19.499Z,15.35
2023-01-25T16:08:10.296Z,15.02
2023-01-25T16:10:56.658Z,15.35
2023-01-25T16:13:42.775Z,15.23
2023-01-25T16:16:35.548Z,14.70
2023-01-25T16:19:23.097Z,15.02
2023-01-25T16:22:09.525Z,15.18
2023-01-25T16:24:55.856Z,14.82
2023-01-25T16:27:44.608Z,13.82
2023-01-25T16:30:34.725Z,14.45
2023-01-25T16:33:25.548Z,13.45
2023-01-25T16:36:12.916Z,14.18
2023-01-25T16:39:10.935Z,14.73
2023-01-25T16:41:57.885Z,13.38
2023-01-25T16:44:45.371Z,13.65
2023-01-25T16:47:37.473Z,13.95
2023-01-25T16:50:24.512Z,14.13
2023-01-25T16:53:13.905Z,14.63
2023-01-25T16:56:01.489Z,14.68
2023-01-25T16:58:48.153Z,14.63
2023-01-25T17:01:35.118Z,13.57
2023-01-25T17:04:24.998Z,13.95
2023-01-25T17:07:13.031Z,13.95
2023-01-25T17:09:59.339Z,13.73
2023-01-25T17:12:46.139Z,13.50
2023-01-25T17:15:34.891Z,14.05
2023-01-25T17:18:22.040Z,13.18
2023-01-25T17:21:14.677Z,14.80
2023-01-25T17:24:09.518Z,9.02
2023-01-25T17:27:01.148Z,13.65
2023-01-25T17:29:47.386Z,14.20
2023-01-25T17:32:34.323Z,13.30
2023-01-25T17:35:21.305Z,13.88
2023-01-25T17:38:11.402Z,13.15
2023-01-25T17:40:57.719Z,13.60
2023-01-25T17:43:54.008Z,13.95
2023-01-25T17:46:40.206Z,13.90
2023-01-25T17:49:26.574Z,13.00
2023-01-25T17:52:15.719Z,13.85
2023-01-25T17:55:01.838Z,14.10
2023-01-25T17:57:51.531Z,13.60
2023-01-25T18:00:37.877Z,15.45
2023-01-25T18:03:24.297Z,15.48
2023-01-25T18:06:10.881Z,15.30
2023-01-25T18:09:00.113Z,15.80
2023-01-25T18:11:46.351Z,15.27
2023-01-25T18:14:32.521Z,14.80
2023-01-25T18:17:18.721Z,15.13
2023-01-25T18:20:06.079Z,14.63
2023-01-25T18:22:52.492Z,15.43
2023-01-25T18:25:38.869Z,14.85
2023-01-25T18:28:26.215Z,14.73
2023-01-25T18:31:34.888Z,15.88
2023-01-25T18:34:21.343Z,17.08
2023-01-25T18:37:18.017Z,17.65
2023-01-25T18:40:06.434Z,16.98
2023-01-25T18:42:53.235Z,17.90
2023-01-25T18:45:39.615Z,17.92
2023-01-25T18:48:32.817Z,17.95
2023-01-25T18:51:19.394Z,20.30
2023-01-25T18:54:06.682Z,19.65
2023-01-25T18:56:55.312Z,21.17
2023-01-25T18:59:42.054Z,20.13
2023-01-25T19:02:28.365Z,20.88
2023-01-25T19:05:18.714Z,21.80
2023-01-25T19:08:05.131Z,21.40
2023-01-25T19:10:53.687Z,21.85
2023-01-25T19:13:40.234Z,21.08
2023-01-25T19:16:28.909Z,20.50
2023-01-25T19:19:15.604Z,19.20
2023-01-25T19:22:02.283Z,19.13
2023-01-25T19:24:48.531Z,18.80
2023-01-25T19:27:35.406Z,18.83
2023-01-25T19:30:22.290Z,17.70
2023-01-25T19:33:08.752Z,16.88
2023-01-25T19:36:00.118Z,16.20
2023-01-25T19:38:47.791Z,16.65
2023-01-25T19:41:34.409Z,16.90
2023-01-25T19:44:21.554Z,16.42
2023-01-25T19:47:08.301Z,16.17
2023-01-25T19:49:55.558Z,15.15
2023-01-25T19:52:42.053Z,15.57
2023-01-25T19:55:28.333Z,15.35
2023-01-25T19:58:14.770Z,14.88
2023-01-25T20:01:11.135Z,14.65
2023-01-25T20:03:58.099Z,14.32
2023-01-25T20:06:44.489Z,14.13
2023-01-25T20:09:30.779Z,13.63
2023-01-25T20:12:17.543Z,14.27
2023-01-25T20:15:03.637Z,13.00
2023-01-25T20:17:49.950Z,13.68
2023-01-25T20:20:35.908Z,12.85
2023-01-25T20:23:22.391Z,13.07
2023-01-25T20:26:13.298Z,12.68
2023-01-25T20:29:00.048Z,13.20
2023-01-25T20:31:46.857Z,13.15
2023-01-25T20:34:32.846Z,14.30
2023-01-25T20:37:19.802Z,14.68
2023-01-25T20:40:07.109Z,13.35
2023-01-25T20:42:53.164Z,13.45
2023-01-25T20:45:39.404Z,13.75
2023-01-25T20:48:25.480Z,14.50
2023-01-25T20:51:17.239Z,13.43
2023-01-25T20:54:03.506Z,13.13
2023-01-25T20:56:50.537Z,12.77
2023-01-25T20:59:37.067Z,13.82
2023-01-25T21:02:23.490Z,13.75
2023-01-25T21:05:09.957Z,13.23
2023-01-25T21:07:56.728Z,13.70
2023-01-25T21:10:47.735Z,12.48
2023-01-25T21:13:34.284Z,12.93
2023-01-25T21:16:24.049Z,12.88
2023-01-25T21:19:11.421Z,12.43
2023-01-25T21:21:58.201Z,11.90
2023-01-25T21:24:44.721Z,12.05
2023-01-25T21:27:30.980Z,12.18
2023-01-25T21:30:17.642Z,11.25
2023-01-25T21:33:04.563Z,11.68
2023-01-25T21:35:55.584Z,11.90
2023-01-25T21:38:42.497Z,11.90
2023-01-25T21:41:30.291Z,11.40
2023-01-25T21:44:34.848Z,11.50
2023-01-25T21:47:30.455Z,10.88
2023-01-25T21:50:36.558Z,10.82
2023-01-25T21:53:23.260Z,11.13
2023-01-25T21:56:09.420Z,10.23
2023-01-25T21:58:55.765Z,10.07
2023-01-25T22:01:45.077Z,9.73
2023-01-25T22:04:36.201Z,10.55
2023-01-25T22:07:22.663Z,10.10
2023-01-25T22:10:10.228Z,9.85
2023-01-25T22:12:57.563Z,9.60
2023-01-25T22:15:44.115Z,10.25
2023-01-25T22:18:35.742Z,9.35
2023-01-25T22:21:23.284Z,9.80
2023-01-25T22:24:13.332Z,9.55
2023-01-25T22:27:09.185Z,9.73
2023-01-25T22:29:55.826Z,9.75
2023-01-25T22:32:42.099Z,9.88
2023-01-25T22:35:28.677Z,9.38
2023-01-25T22:38:14.932Z,10.13
2023-01-25T22:41:08.290Z,9.70
2023-01-25T22:46:40.935Z,10.65
2023-01-25T22:49:28.030Z,10.73
2023-01-25T22:52:14.639Z,10.07
2023-01-25T22:55:01.347Z,10.18
2023-01-25T22:57:48.254Z,10.63
2023-01-25T23:00:34.560Z,10.57
2023-01-25T23:03:20.758Z,10.45
2023-01-25T23:06:09.634Z,10.93
2023-01-25T23:08:56.920Z,9.85
2023-01-25T23:11:43.527Z,9.75
2023-01-25T23:14:51.984Z,10.05
2023-01-25T23:17:57.033Z,9.05
2023-01-25T23:20:44.538Z,9.00
2023-01-25T23:23:30.715Z,9.43
2023-01-25T23:26:18.115Z,8.80
2023-01-25T23:29:05.303Z,8.70
2023-01-25T23:31:51.862Z,8.57
2023-01-25T23:34:40.343Z,8.65
2023-01-25T23:37:26.831Z,8.52
2023-01-25T23:40:14.871Z,8.20
2023-01-25T23:43:01.241Z,8.68
2023-01-25T23:45:47.820Z,8.20
2023-01-25T23:48:34.651Z,7.95
2023-01-25T23:51:21.255Z,7.88
2023-01-25T23:54:07.528Z,8.00
2023-01-25T23:56:54.690Z,8.63
2023-01-25T23:59:40.985Z,8.55
